Terminal Aerodrome Forecast
Issued by NWS Amarillo, TX

Current Version | Previous Version | Text Only | Print | Product List | Glossary Off
Versions: 1 2 3 4 5 6 7 8 9 10 11 12 13 14 15 16 17

712
FTUS44 KAMA 221731
TAFDHT
TAF
KDHT 221731Z 2218/2318 32017G24KT P6SM SKC
     FM230000 35008KT P6SM FEW250
     FM231500 04008KT P6SM FEW250=

USA.gov is the U.S. government's official web portal to all federal, state and local government web resources and services.